Evening Tide — WY9441 — position and weather

sailwx.info

Track history (hours):
 
Tides and Currents Weather Stations Pressure Air Temp Water Temp Dewpoint Dewpoint Depression Visibility Wind Speed Wind Dir Waves Ship Positions

Evening Tide

Owner: TUG EVENING TIDE CORP, MELVILLE, NY. More information available from US FCC via Universal Licensing System and Coast Guard Vessel Documentation Center.

Last reported at 2018-Apr-26 23:14 UTC. Time now 2018-Apr-27 05:04 UTC.
Position N 40°39' W 074°11'.

Length 43 m.

Type: Towing. MMSI: 367006620.

Date/timePositionNaut miles runAvg speedWind from/ knotsBaromVisibWave heightAir tempDewpointWater temp
2018-Apr-26 23:14N 40°39' W 074°11'2 7.5
2018-Apr-26 23:00N 40°39' W 074°09'4 7.7
2018-Apr-26 22:30N 40°39' W 074°04'4 7.3
2018-Apr-26 22:00N 40°42' W 074°00'0 0.2
2018-Apr-26 21:30N 40°41' W 074°00'0 0.0
2018-Apr-26 21:00N 40°41' W 074°00'0 0.0
2018-Apr-26 20:30N 40°41' W 074°00'2 4.5
2018-Apr-26 20:00N 40°40' W 074°02'4 7.7
2018-Apr-26 19:30N 40°39' W 074°07'4 8.4
2018-Apr-26 19:00N 40°40' W 074°02'2 4.0
2018-Apr-26 18:30N 40°42' W 074°00'3 5.0
2018-Apr-26 18:00N 40°40' W 074°02'1 1.1
2018-Apr-26 17:30N 40°39' W 074°03'0 0.1
2018-Apr-26 17:00N 40°39' W 074°03'0 0.0
2018-Apr-26 16:30N 40°39' W 074°03'0 0.0
2018-Apr-26 16:00N 40°39' W 074°03'0 0.0
2018-Apr-26 15:30N 40°39' W 074°03'0 0.0
2018-Apr-26 15:00N 40°39' W 074°03'0 0.0
2018-Apr-26 14:30N 40°39' W 074°03'3 5.6
2018-Apr-26 14:00N 40°39' W 074°06'1 0.4
2018-Apr-26 12:28N 40°39' W 074°07'1 2.3
2018-Apr-26 12:00N 40°39' W 074°06'0 0.0
2018-Apr-26 11:29N 40°39' W 074°06'0 0.0
2018-Apr-26 11:00N 40°39' W 074°06'1 0.1
2018-Apr-26 02:21N 40°39' W 074°07'0 0.0
2018-Apr-25 11:24N 40°39' W 074°07'0 0.0
2018-Apr-25 10:57N 40°39' W 074°07'0 0.0
2018-Apr-24 23:07N 40°39' W 074°07'1 6.4
2018-Apr-24 22:59N 40°39' W 074°06'4 8.9
2018-Apr-24 22:30N 40°41' W 074°01'1 1.7
2018-Apr-24 22:00N 40°41' W 074°00'1 2.1
2018-Apr-24 21:30N 40°41' W 074°01'1 2.1
2018-Apr-24 21:00N 40°40' W 074°02'0 0.0
2018-Apr-24 20:30N 40°40' W 074°02'0 0.0
2018-Apr-24 20:00N 40°40' W 074°02'0 0.0
2018-Apr-24 19:30N 40°40' W 074°02'0 0.0
2018-Apr-24 19:00N 40°40' W 074°02'0 0.0
2018-Apr-24 18:30N 40°40' W 074°02'0 0.0
2018-Apr-24 18:00N 40°40' W 074°02'0 0.1
2018-Apr-24 17:30N 40°40' W 074°02'2 4.2
2018-Apr-24 17:01N 40°42' W 074°02'2 4.5
2018-Apr-24 16:30N 40°43' W 073°59'32 6.7
2018-Apr-24 11:46N 41°00' W 073°24'2 8.8
2018-Apr-24 11:31N 41°01' W 073°21'10 8.7
2018-Apr-24 10:23N 41°02' W 073°08'4 8.8
2018-Apr-24 09:52N 41°02' W 073°02'3 8.5
2018-Apr-24 09:30N 41°02' W 072°58'5 9.2
2018-Apr-24 08:59N 41°03' W 072°52'7 9.3
2018-Apr-24 08:15N 41°05' W 072°43'2 9.2
2018-Apr-24 08:00N 41°06' W 072°40'5 9.2
2018-Apr-24 07:30N 41°07' W 072°35'5 9.8
2018-Apr-24 07:00N 41°09' W 072°28'5 9.3
2018-Apr-24 06:30N 41°10' W 072°23'5 9.1
2018-Apr-24 06:00N 41°12' W 072°17'4 9.0
2018-Apr-24 05:30N 41°13' W 072°11'92 6.1
2018-Apr-23 14:20N 42°13' W 070°37'3 8.5
2018-Apr-23 14:00N 42°16' W 070°40'4 8.5
2018-Apr-23 13:30N 42°19' W 070°43'4 8.7
2018-Apr-23 13:00N 42°21' W 070°48'4 8.0
2018-Apr-23 12:30N 42°23' W 070°53'4 7.2
2018-Apr-23 12:01N 42°20' W 070°57'3 6.6
2018-Apr-23 11:30N 42°21' W 071°01'0 0.7
2018-Apr-23 11:00N 42°21' W 071°02'0 0.2
2018-Apr-23 10:30N 42°21' W 071°01'2 4.1
2018-Apr-23 10:00N 42°23' W 071°03'1 2.6
2018-Apr-23 09:30N 42°24' W 071°01'0 0.0
2018-Apr-23 09:00N 42°24' W 071°01'0 0.0
2018-Apr-23 08:30N 42°24' W 071°01'0 0.0
2018-Apr-23 08:00N 42°24' W 071°01'0 0.0
2018-Apr-23 07:30N 42°24' W 071°01'0 0.0
2018-Apr-23 07:00N 42°24' W 071°01'0 0.0
2018-Apr-23 06:30N 42°24' W 071°01'0 0.0
2018-Apr-23 06:01N 42°24' W 071°01'0 0.0
2018-Apr-23 05:30N 42°24' W 071°01'0 0.0
2018-Apr-23 05:00N 42°24' W 071°01'0 0.0
2018-Apr-23 04:30N 42°24' W 071°01'0 0.0
2018-Apr-23 04:00N 42°24' W 071°01'0 0.0
2018-Apr-23 03:31N 42°24' W 071°01'0 0.0
2018-Apr-23 03:01N 42°24' W 071°01'0 0.0
2018-Apr-23 02:30N 42°24' W 071°01'0 0.0
2018-Apr-23 02:00N 42°24' W 071°01'0 0.0
2018-Apr-23 01:31N 42°24' W 071°01'1 1.3
2018-Apr-23 01:01N 42°23' W 071°02'0 0.0
2018-Apr-23 00:30N 42°23' W 071°02'0 0.0
2018-Apr-23 00:01N 42°23' W 071°02'0 0.0
2018-Apr-22 23:30N 42°23' W 071°02'0 0.0
2018-Apr-22 23:00N 42°23' W 071°02'0 0.0
2018-Apr-22 22:30N 42°23' W 071°02'0 0.0
2018-Apr-22 22:01N 42°23' W 071°02'0 0.0
2018-Apr-22 21:30N 42°23' W 071°02'0 0.0
2018-Apr-22 21:01N 42°23' W 071°02'0 0.0
2018-Apr-22 20:30N 42°23' W 071°02'0 0.0
2018-Apr-22 20:00N 42°23' W 071°02'0 0.0
2018-Apr-22 19:30N 42°23' W 071°02'0 0.0
2018-Apr-22 19:00N 42°23' W 071°02'0 0.0
2018-Apr-22 18:30N 42°23' W 071°02'0 0.0
2018-Apr-22 18:01N 42°23' W 071°02'0 0.0
2018-Apr-22 17:30N 42°23' W 071°02'0 0.0
2018-Apr-22 17:01N 42°23' W 071°02'0 0.0
2018-Apr-22 16:30N 42°23' W 071°02'0 0.0
2018-Apr-22 16:01N 42°23' W 071°02'1 1.9
2018-Apr-22 15:31N 42°23' W 071°03'2 3.2
2018-Apr-22 15:00N 42°21' W 071°02'1 1.2
2018-Apr-22 14:30N 42°21' W 071°01'3 5.8
2018-Apr-22 14:00N 42°20' W 070°58'3 5.4
2018-Apr-22 13:30N 42°22' W 070°55'3 6.3
2018-Apr-22 13:00N 42°23' W 070°51'3 6.8
2018-Apr-22 12:30N 42°21' W 070°47'3 6.8
2018-Apr-22 12:00N 42°19' W 070°43'3 6.9
2018-Apr-22 11:30N 42°16' W 070°40'3 6.9
2018-Apr-22 11:00N 42°13' W 070°37'4 6.9
2018-Apr-22 10:30N 42°10' W 070°35'94 5.3
2018-Apr-21 16:53N 41°13' W 072°16'2 5.1
2018-Apr-21 16:30N 41°13' W 072°18'1 1.1
2018-Apr-21 15:59N 41°12' W 072°18'2 3.4
2018-Apr-21 15:26N 41°11' W 072°20'3 7.5
2018-Apr-21 15:00N 41°10' W 072°24'4 7.7
2018-Apr-21 14:30N 41°09' W 072°29'4 7.7
2018-Apr-21 14:00N 41°08' W 072°34'4 8.1
2018-Apr-21 13:30N 41°07' W 072°39'4 8.2
2018-Apr-21 13:00N 41°06' W 072°45'47 7.9
2018-Apr-21 07:07N 40°52' W 073°44'1 7.3
2018-Apr-21 06:57N 40°51' W 073°45'4 6.9
2018-Apr-21 06:24N 40°48' W 073°47'3 7.2
2018-Apr-21 06:00N 40°48' W 073°51'3 6.7
2018-Apr-21 05:30N 40°47' W 073°55'3 6.3
2018-Apr-21 05:00N 40°45' W 073°58'3 5.5
2018-Apr-21 04:30N 40°42' W 073°60'3 6.2
2018-Apr-21 04:00N 40°40' W 074°03'2 3.6
2018-Apr-21 03:30N 40°38' W 074°03'0 0.3
2018-Apr-21 03:00N 40°38' W 074°03'2 3.7
2018-Apr-21 02:30N 40°39' W 074°05'3 5.6
2018-Apr-21 01:59N 40°39' W 074°09'3 5.5
2018-Apr-21 01:30N 40°38' W 074°12'3 5.6
2018-Apr-21 00:59N 40°35' W 074°13'3 2.2
2018-Apr-20 23:47N 40°33' W 074°15'3 0.4
2018-Apr-20 16:07N 40°35' W 074°12'0 0.5
2018-Apr-20 16:00N 40°35' W 074°12'2 5.0
2018-Apr-20 15:30N 40°33' W 074°14'0 0.0
2018-Apr-20 15:00N 40°33' W 074°14'0 0.0
2018-Apr-20 11:43N 40°34' W 074°14'0 0.7
2018-Apr-20 11:30N 40°33' W 074°14'1 1.8
2018-Apr-20 10:59N 40°33' W 074°15'0 0.1
2018-Apr-20 09:51N 40°33' W 074°15'2 6.1
2018-Apr-20 09:30N 40°34' W 074°13'4 8.9
2018-Apr-20 09:00N 40°38' W 074°12'4 7.3
2018-Apr-20 08:30N 40°39' W 074°07'3 7.0
2018-Apr-20 08:00N 40°39' W 074°02'0 0.4
2018-Apr-20 07:30N 40°39' W 074°02'0 0.0
2018-Apr-20 07:00N 40°39' W 074°02'0 0.0
2018-Apr-20 06:30N 40°39' W 074°02'0 0.0
2018-Apr-20 06:00N 40°39' W 074°02'0 0.0
2018-Apr-20 05:30N 40°39' W 074°02'0 0.0
2018-Apr-20 05:00N 40°39' W 074°02'0 0.0
2018-Apr-20 04:30N 40°39' W 074°02'0 0.0
2018-Apr-20 04:00N 40°39' W 074°02'0 0.0
2018-Apr-20 03:30N 40°39' W 074°02'0 0.0
2018-Apr-20 03:00N 40°39' W 074°02'0 0.1
2018-Apr-20 02:30N 40°39' W 074°02'0 0.0
2018-Apr-20 02:00N 40°39' W 074°02'0 0.0
2018-Apr-20 01:30N 40°39' W 074°02'0 0.0
2018-Apr-20 01:00N 40°39' W 074°02'0 0.0
2018-Apr-20 00:30N 40°39' W 074°02'0 0.0
2018-Apr-20 00:00N 40°39' W 074°02'0 0.0
2018-Apr-19 23:30N 40°39' W 074°02'0 0.0
2018-Apr-19 23:00N 40°39' W 074°02'0 0.0
2018-Apr-19 22:30N 40°39' W 074°02'0 0.0
2018-Apr-19 22:00N 40°39' W 074°02'0 0.0
2018-Apr-19 21:30N 40°39' W 074°02'0 0.0
2018-Apr-19 21:00N 40°39' W 074°02'0 0.0
2018-Apr-19 20:30N 40°39' W 074°02'0 0.0
2018-Apr-19 20:00N 40°39' W 074°02'0 0.0
2018-Apr-19 19:30N 40°39' W 074°02'0 0.0
2018-Apr-19 19:00N 40°39' W 074°02'0 0.0
2018-Apr-19 18:30N 40°39' W 074°02'1 1.5
2018-Apr-19 18:00N 40°39' W 074°03'3 6.0
2018-Apr-19 17:30N 40°36' W 074°01'5 9.1
2018-Apr-19 17:00N 40°39' W 074°06'1 1.9
2018-Apr-19 16:30N 40°39' W 074°07'0 0.0
2018-Apr-19 15:58N 40°39' W 074°07'0 0.0
2018-Apr-19 15:28N 40°39' W 074°07'2 4.9
2018-Apr-19 15:00N 40°39' W 074°04'1 2.9
2018-Apr-19 14:30N 40°39' W 074°02'0 0.0
2018-Apr-19 14:00N 40°39' W 074°02'0 0.2
2018-Apr-19 13:30N 40°39' W 074°02'0 0.0
2018-Apr-19 13:00N 40°39' W 074°02'0 0.1
2018-Apr-19 12:30N 40°39' W 074°02'0 0.2
2018-Apr-19 12:00N 40°39' W 074°03'0 0.1
2018-Apr-19 11:30N 40°39' W 074°02'0 0.1
2018-Apr-19 11:00N 40°39' W 074°02'0 0.0
2018-Apr-19 10:30N 40°39' W 074°02'0 0.0
2018-Apr-19 10:00N 40°39' W 074°02'0 0.0
2018-Apr-19 09:30N 40°39' W 074°02'0 0.0
2018-Apr-19 09:00N 40°39' W 074°02'0 0.0
2018-Apr-19 08:30N 40°39' W 074°02'0 0.0
2018-Apr-19 08:00N 40°39' W 074°02'1 2.4
2018-Apr-19 07:30N 40°40' W 074°02'510.7
2018-Apr-19 07:00N 40°46' W 074°01'5 9.8
2018-Apr-19 06:30N 40°50' W 073°58'4 8.6
2018-Apr-19 06:00N 40°54' W 073°55'4 0.2
2018-Apr-18 07:43N 40°58' W 073°54'1 6.0
2018-Apr-18 07:29N 40°56' W 073°55'3 6.1
2018-Apr-18 07:00N 40°53' W 073°55'3 6.1
2018-Apr-18 06:30N 40°51' W 073°57'3 6.4
2018-Apr-18 06:00N 40°48' W 073°59'3 7.0
2018-Apr-18 05:31N 40°45' W 074°01'4 7.3
2018-Apr-18 05:00N 40°41' W 074°02'4 7.7
2018-Apr-18 04:30N 40°39' W 074°06'4 8.3
2018-Apr-18 04:00N 40°38' W 074°12'3 6.2
2018-Apr-18 03:27N 40°35' W 074°13'2 4.0
2018-Apr-18 02:58N 40°33' W 074°14'0 0.0
2018-Apr-18 02:26N 40°33' W 074°14'0 0.1
2018-Apr-18 01:59N 40°34' W 074°14'0 0.0
2018-Apr-18 01:29N 40°34' W 074°14'2 2.8
2018-Apr-18 00:57N 40°34' W 074°13'4 9.0
2018-Apr-18 00:30N 40°38' W 074°12'3 6.7
2018-Apr-17 23:59N 40°39' W 074°07'0 0.0
2018-Apr-17 23:29N 40°39' W 074°07'0 0.0
2018-Apr-17 23:00N 40°39' W 074°07'0 0.0
2018-Apr-17 22:29N 40°39' W 074°07'0 0.0
2018-Apr-17 21:57N 40°38' W 074°07'0 0.0
2018-Apr-17 21:30N 40°39' W 074°07'0 0.0
2018-Apr-17 20:59N 40°39' W 074°07'0 0.0
2018-Apr-17 20:30N 40°39' W 074°07'0 0.0
2018-Apr-17 20:00N 40°39' W 074°07'0 0.0
2018-Apr-17 19:29N 40°39' W 074°07'0 0.0
2018-Apr-17 19:00N 40°39' W 074°07'0 0.0
2018-Apr-17 18:11N 40°38' W 074°07'0 0.0
2018-Apr-17 17:50N 40°38' W 074°07'0 0.0
2018-Apr-17 17:18N 40°39' W 074°07'0 0.0
2018-Apr-17 16:55N 40°39' W 074°07'0 0.0
2018-Apr-17 16:28N 40°38' W 074°07'0 0.0
2018-Apr-17 15:59N 40°39' W 074°07'0 0.0
2018-Apr-17 15:30N 40°38' W 074°07'0 0.0
2018-Apr-17 15:00N 40°39' W 074°07'0 0.0
2018-Apr-17 14:30N 40°38' W 074°07'0 0.0
2018-Apr-17 13:59N 40°39' W 074°07'0 0.0
2018-Apr-17 13:30N 40°38' W 074°07'0 0.0
2018-Apr-17 13:00N 40°39' W 074°07'0 0.0
2018-Apr-17 12:30N 40°38' W 074°07'0 0.0
2018-Apr-17 12:00N 40°39' W 074°07'0 0.0
2018-Apr-17 11:30N 40°38' W 074°07'0 0.2
2018-Apr-17 11:00N 40°39' W 074°07'4 8.1
2018-Apr-17 10:30N 40°40' W 074°02'0 0.0
2018-Apr-17 10:00N 40°40' W 074°02'0 0.0
2018-Apr-17 09:30N 40°40' W 074°02'0 0.1
2018-Apr-17 09:00N 40°40' W 074°02'0 0.0
2018-Apr-17 08:30N 40°40' W 074°02'0 0.0
2018-Apr-17 08:00N 40°40' W 074°02'0 0.0
2018-Apr-17 07:30N 40°40' W 074°02'0 0.0
2018-Apr-17 07:00N 40°40' W 074°02'0 0.0
2018-Apr-17 06:30N 40°40' W 074°02'0 0.0
2018-Apr-17 06:00N 40°40' W 074°02'0 0.0
2018-Apr-17 05:30N 40°40' W 074°02'0 0.0
2018-Apr-17 05:00N 40°40' W 074°02'0 0.0
2018-Apr-17 04:30N 40°40' W 074°02'0 0.1
2018-Apr-17 04:00N 40°40' W 074°02'0 0.0
2018-Apr-17 03:30N 40°40' W 074°02'0 0.0
2018-Apr-17 03:00N 40°40' W 074°02'0 0.0
2018-Apr-17 02:30N 40°40' W 074°02'0 0.0
2018-Apr-17 02:00N 40°40' W 074°02'0 0.0
2018-Apr-17 01:30N 40°40' W 074°02'0 0.0
2018-Apr-17 01:00N 40°40' W 074°02'0 0.0
2018-Apr-17 00:30N 40°40' W 074°02'0 0.0
2018-Apr-17 00:00N 40°40' W 074°02'0 0.0
2018-Apr-16 23:30N 40°40' W 074°02'  
Track history (hours):
 
Tides and Currents Weather Stations Pressure Air Temp Water Temp Dewpoint Dewpoint Depression Visibility Wind Speed Wind Dir Waves Ship Positions

Evening Tide

Owner: TUG EVENING TIDE CORP, MELVILLE, NY. More information available from US FCC via Universal Licensing System and Coast Guard Vessel Documentation Center.

Last reported at 2018-Apr-26 23:14 UTC. Time now 2018-Apr-27 05:04 UTC.
Position N 40°39' W 074°11'.

Length 43 m.

Type: Towing. MMSI: 367006620.

Date/timePositionNaut miles runAvg speedWind from/ knotsBaromVisibWave heightAir tempDewpointWater temp
2018-Apr-26 23:14N 40°39' W 074°11'2 7.5
2018-Apr-26 23:00N 40°39' W 074°09'4 7.7
2018-Apr-26 22:30N 40°39' W 074°04'4 7.3
2018-Apr-26 22:00N 40°42' W 074°00'0 0.2
2018-Apr-26 21:30N 40°41' W 074°00'0 0.0
2018-Apr-26 21:00N 40°41' W 074°00'0 0.0
2018-Apr-26 20:30N 40°41' W 074°00'2 4.5
2018-Apr-26 20:00N 40°40' W 074°02'4 7.7
2018-Apr-26 19:30N 40°39' W 074°07'4 8.4
2018-Apr-26 19:00N 40°40' W 074°02'2 4.0
2018-Apr-26 18:30N 40°42' W 074°00'3 5.0
2018-Apr-26 18:00N 40°40' W 074°02'1 1.1
2018-Apr-26 17:30N 40°39' W 074°03'0 0.1
2018-Apr-26 17:00N 40°39' W 074°03'0 0.0
2018-Apr-26 16:30N 40°39' W 074°03'0 0.0
2018-Apr-26 16:00N 40°39' W 074°03'0 0.0
2018-Apr-26 15:30N 40°39' W 074°03'0 0.0
2018-Apr-26 15:00N 40°39' W 074°03'0 0.0
2018-Apr-26 14:30N 40°39' W 074°03'3 5.6
2018-Apr-26 14:00N 40°39' W 074°06'1 0.4
2018-Apr-26 12:28N 40°39' W 074°07'1 2.3
2018-Apr-26 12:00N 40°39' W 074°06'0 0.0
2018-Apr-26 11:29N 40°39' W 074°06'0 0.0
2018-Apr-26 11:00N 40°39' W 074°06'1 0.1
2018-Apr-26 02:21N 40°39' W 074°07'0 0.0
2018-Apr-25 11:24N 40°39' W 074°07'0 0.0
2018-Apr-25 10:57N 40°39' W 074°07'0 0.0
2018-Apr-24 23:07N 40°39' W 074°07'1 6.4
2018-Apr-24 22:59N 40°39' W 074°06'4 8.9
2018-Apr-24 22:30N 40°41' W 074°01'1 1.7
2018-Apr-24 22:00N 40°41' W 074°00'1 2.1
2018-Apr-24 21:30N 40°41' W 074°01'1 2.1
2018-Apr-24 21:00N 40°40' W 074°02'0 0.0
2018-Apr-24 20:30N 40°40' W 074°02'0 0.0
2018-Apr-24 20:00N 40°40' W 074°02'0 0.0
2018-Apr-24 19:30N 40°40' W 074°02'0 0.0
2018-Apr-24 19:00N 40°40' W 074°02'0 0.0
2018-Apr-24 18:30N 40°40' W 074°02'0 0.0
2018-Apr-24 18:00N 40°40' W 074°02'0 0.1
2018-Apr-24 17:30N 40°40' W 074°02'2 4.2
2018-Apr-24 17:01N 40°42' W 074°02'2 4.5
2018-Apr-24 16:30N 40°43' W 073°59'32 6.7
2018-Apr-24 11:46N 41°00' W 073°24'2 8.8
2018-Apr-24 11:31N 41°01' W 073°21'10 8.7
2018-Apr-24 10:23N 41°02' W 073°08'4 8.8
2018-Apr-24 09:52N 41°02' W 073°02'3 8.5
2018-Apr-24 09:30N 41°02' W 072°58'5 9.2
2018-Apr-24 08:59N 41°03' W 072°52'7 9.3
2018-Apr-24 08:15N 41°05' W 072°43'2 9.2
2018-Apr-24 08:00N 41°06' W 072°40'5 9.2
2018-Apr-24 07:30N 41°07' W 072°35'5 9.8
2018-Apr-24 07:00N 41°09' W 072°28'5 9.3
2018-Apr-24 06:30N 41°10' W 072°23'5 9.1
2018-Apr-24 06:00N 41°12' W 072°17'4 9.0
2018-Apr-24 05:30N 41°13' W 072°11'92 6.1
2018-Apr-23 14:20N 42°13' W 070°37'3 8.5
2018-Apr-23 14:00N 42°16' W 070°40'4 8.5
2018-Apr-23 13:30N 42°19' W 070°43'4 8.7
2018-Apr-23 13:00N 42°21' W 070°48'4 8.0
2018-Apr-23 12:30N 42°23' W 070°53'4 7.2
2018-Apr-23 12:01N 42°20' W 070°57'3 6.6
2018-Apr-23 11:30N 42°21' W 071°01'0 0.7
2018-Apr-23 11:00N 42°21' W 071°02'0 0.2
2018-Apr-23 10:30N 42°21' W 071°01'2 4.1
2018-Apr-23 10:00N 42°23' W 071°03'1 2.6
2018-Apr-23 09:30N 42°24' W 071°01'0 0.0
2018-Apr-23 09:00N 42°24' W 071°01'0 0.0
2018-Apr-23 08:30N 42°24' W 071°01'0 0.0
2018-Apr-23 08:00N 42°24' W 071°01'0 0.0
2018-Apr-23 07:30N 42°24' W 071°01'0 0.0
2018-Apr-23 07:00N 42°24' W 071°01'0 0.0
2018-Apr-23 06:30N 42°24' W 071°01'0 0.0
2018-Apr-23 06:01N 42°24' W 071°01'0 0.0
2018-Apr-23 05:30N 42°24' W 071°01'0 0.0
2018-Apr-23 05:00N 42°24' W 071°01'0 0.0
2018-Apr-23 04:30N 42°24' W 071°01'0 0.0
2018-Apr-23 04:00N 42°24' W 071°01'0 0.0
2018-Apr-23 03:31N 42°24' W 071°01'0 0.0
2018-Apr-23 03:01N 42°24' W 071°01'0 0.0
2018-Apr-23 02:30N 42°24' W 071°01'0 0.0
2018-Apr-23 02:00N 42°24' W 071°01'0 0.0
2018-Apr-23 01:31N 42°24' W 071°01'1 1.3
2018-Apr-23 01:01N 42°23' W 071°02'0 0.0
2018-Apr-23 00:30N 42°23' W 071°02'0 0.0
2018-Apr-23 00:01N 42°23' W 071°02'0 0.0
2018-Apr-22 23:30N 42°23' W 071°02'0 0.0
2018-Apr-22 23:00N 42°23' W 071°02'0 0.0
2018-Apr-22 22:30N 42°23' W 071°02'0 0.0
2018-Apr-22 22:01N 42°23' W 071°02'0 0.0
2018-Apr-22 21:30N 42°23' W 071°02'0 0.0
2018-Apr-22 21:01N 42°23' W 071°02'0 0.0
2018-Apr-22 20:30N 42°23' W 071°02'0 0.0
2018-Apr-22 20:00N 42°23' W 071°02'0 0.0
2018-Apr-22 19:30N 42°23' W 071°02'0 0.0
2018-Apr-22 19:00N 42°23' W 071°02'0 0.0
2018-Apr-22 18:30N 42°23' W 071°02'0 0.0
2018-Apr-22 18:01N 42°23' W 071°02'0 0.0
2018-Apr-22 17:30N 42°23' W 071°02'0 0.0
2018-Apr-22 17:01N 42°23' W 071°02'0 0.0
2018-Apr-22 16:30N 42°23' W 071°02'0 0.0
2018-Apr-22 16:01N 42°23' W 071°02'1 1.9
2018-Apr-22 15:31N 42°23' W 071°03'2 3.2
2018-Apr-22 15:00N 42°21' W 071°02'1 1.2
2018-Apr-22 14:30N 42°21' W 071°01'3 5.8
2018-Apr-22 14:00N 42°20' W 070°58'3 5.4
2018-Apr-22 13:30N 42°22' W 070°55'3 6.3
2018-Apr-22 13:00N 42°23' W 070°51'3 6.8
2018-Apr-22 12:30N 42°21' W 070°47'3 6.8
2018-Apr-22 12:00N 42°19' W 070°43'3 6.9
2018-Apr-22 11:30N 42°16' W 070°40'3 6.9
2018-Apr-22 11:00N 42°13' W 070°37'4 6.9
2018-Apr-22 10:30N 42°10' W 070°35'94 5.3
2018-Apr-21 16:53N 41°13' W 072°16'2 5.1
2018-Apr-21 16:30N 41°13' W 072°18'1 1.1
2018-Apr-21 15:59N 41°12' W 072°18'2 3.4
2018-Apr-21 15:26N 41°11' W 072°20'3 7.5
2018-Apr-21 15:00N 41°10' W 072°24'4 7.7
2018-Apr-21 14:30N 41°09' W 072°29'4 7.7
2018-Apr-21 14:00N 41°08' W 072°34'4 8.1
2018-Apr-21 13:30N 41°07' W 072°39'4 8.2
2018-Apr-21 13:00N 41°06' W 072°45'47 7.9
2018-Apr-21 07:07N 40°52' W 073°44'1 7.3
2018-Apr-21 06:57N 40°51' W 073°45'4 6.9
2018-Apr-21 06:24N 40°48' W 073°47'3 7.2
2018-Apr-21 06:00N 40°48' W 073°51'3 6.7
2018-Apr-21 05:30N 40°47' W 073°55'3 6.3
2018-Apr-21 05:00N 40°45' W 073°58'3 5.5
2018-Apr-21 04:30N 40°42' W 073°60'3 6.2
2018-Apr-21 04:00N 40°40' W 074°03'2 3.6
2018-Apr-21 03:30N 40°38' W 074°03'0 0.3
2018-Apr-21 03:00N 40°38' W 074°03'2 3.7
2018-Apr-21 02:30N 40°39' W 074°05'3 5.6
2018-Apr-21 01:59N 40°39' W 074°09'3 5.5
2018-Apr-21 01:30N 40°38' W 074°12'3 5.6
2018-Apr-21 00:59N 40°35' W 074°13'3 2.2
2018-Apr-20 23:47N 40°33' W 074°15'3 0.4
2018-Apr-20 16:07N 40°35' W 074°12'0 0.5
2018-Apr-20 16:00N 40°35' W 074°12'2 5.0
2018-Apr-20 15:30N 40°33' W 074°14'0 0.0
2018-Apr-20 15:00N 40°33' W 074°14'0 0.0
2018-Apr-20 11:43N 40°34' W 074°14'0 0.7
2018-Apr-20 11:30N 40°33' W 074°14'1 1.8
2018-Apr-20 10:59N 40°33' W 074°15'0 0.1
2018-Apr-20 09:51N 40°33' W 074°15'2 6.1
2018-Apr-20 09:30N 40°34' W 074°13'4 8.9
2018-Apr-20 09:00N 40°38' W 074°12'4 7.3
2018-Apr-20 08:30N 40°39' W 074°07'3 7.0
2018-Apr-20 08:00N 40°39' W 074°02'0 0.4
2018-Apr-20 07:30N 40°39' W 074°02'0 0.0
2018-Apr-20 07:00N 40°39' W 074°02'0 0.0
2018-Apr-20 06:30N 40°39' W 074°02'0 0.0
2018-Apr-20 06:00N 40°39' W 074°02'0 0.0
2018-Apr-20 05:30N 40°39' W 074°02'0 0.0
2018-Apr-20 05:00N 40°39' W 074°02'0 0.0
2018-Apr-20 04:30N 40°39' W 074°02'0 0.0
2018-Apr-20 04:00N 40°39' W 074°02'0 0.0
2018-Apr-20 03:30N 40°39' W 074°02'0 0.0
2018-Apr-20 03:00N 40°39' W 074°02'0 0.1
2018-Apr-20 02:30N 40°39' W 074°02'0 0.0
2018-Apr-20 02:00N 40°39' W 074°02'0 0.0
2018-Apr-20 01:30N 40°39' W 074°02'0 0.0
2018-Apr-20 01:00N 40°39' W 074°02'0 0.0
2018-Apr-20 00:30N 40°39' W 074°02'0 0.0
2018-Apr-20 00:00N 40°39' W 074°02'0 0.0
2018-Apr-19 23:30N 40°39' W 074°02'0 0.0
2018-Apr-19 23:00N 40°39' W 074°02'0 0.0
2018-Apr-19 22:30N 40°39' W 074°02'0 0.0
2018-Apr-19 22:00N 40°39' W 074°02'0 0.0
2018-Apr-19 21:30N 40°39' W 074°02'0 0.0
2018-Apr-19 21:00N 40°39' W 074°02'0 0.0
2018-Apr-19 20:30N 40°39' W 074°02'0 0.0
2018-Apr-19 20:00N 40°39' W 074°02'0 0.0
2018-Apr-19 19:30N 40°39' W 074°02'0 0.0
2018-Apr-19 19:00N 40°39' W 074°02'0 0.0
2018-Apr-19 18:30N 40°39' W 074°02'1 1.5
2018-Apr-19 18:00N 40°39' W 074°03'3 6.0
2018-Apr-19 17:30N 40°36' W 074°01'5 9.1
2018-Apr-19 17:00N 40°39' W 074°06'1 1.9
2018-Apr-19 16:30N 40°39' W 074°07'0 0.0
2018-Apr-19 15:58N 40°39' W 074°07'0 0.0
2018-Apr-19 15:28N 40°39' W 074°07'2 4.9
2018-Apr-19 15:00N 40°39' W 074°04'1 2.9
2018-Apr-19 14:30N 40°39' W 074°02'0 0.0
2018-Apr-19 14:00N 40°39' W 074°02'0 0.2
2018-Apr-19 13:30N 40°39' W 074°02'0 0.0
2018-Apr-19 13:00N 40°39' W 074°02'0 0.1
2018-Apr-19 12:30N 40°39' W 074°02'0 0.2
2018-Apr-19 12:00N 40°39' W 074°03'0 0.1
2018-Apr-19 11:30N 40°39' W 074°02'0 0.1
2018-Apr-19 11:00N 40°39' W 074°02'0 0.0
2018-Apr-19 10:30N 40°39' W 074°02'0 0.0
2018-Apr-19 10:00N 40°39' W 074°02'0 0.0
2018-Apr-19 09:30N 40°39' W 074°02'0 0.0
2018-Apr-19 09:00N 40°39' W 074°02'0 0.0
2018-Apr-19 08:30N 40°39' W 074°02'0 0.0
2018-Apr-19 08:00N 40°39' W 074°02'1 2.4
2018-Apr-19 07:30N 40°40' W 074°02'510.7
2018-Apr-19 07:00N 40°46' W 074°01'5 9.8
2018-Apr-19 06:30N 40°50' W 073°58'4 8.6
2018-Apr-19 06:00N 40°54' W 073°55'4 0.2
2018-Apr-18 07:43N 40°58' W 073°54'1 6.0
2018-Apr-18 07:29N 40°56' W 073°55'3 6.1
2018-Apr-18 07:00N 40°53' W 073°55'3 6.1
2018-Apr-18 06:30N 40°51' W 073°57'3 6.4
2018-Apr-18 06:00N 40°48' W 073°59'3 7.0
2018-Apr-18 05:31N 40°45' W 074°01'4 7.3
2018-Apr-18 05:00N 40°41' W 074°02'4 7.7
2018-Apr-18 04:30N 40°39' W 074°06'4 8.3
2018-Apr-18 04:00N 40°38' W 074°12'3 6.2
2018-Apr-18 03:27N 40°35' W 074°13'2 4.0
2018-Apr-18 02:58N 40°33' W 074°14'0 0.0
2018-Apr-18 02:26N 40°33' W 074°14'0 0.1
2018-Apr-18 01:59N 40°34' W 074°14'0 0.0
2018-Apr-18 01:29N 40°34' W 074°14'2 2.8
2018-Apr-18 00:57N 40°34' W 074°13'4 9.0
2018-Apr-18 00:30N 40°38' W 074°12'3 6.7
2018-Apr-17 23:59N 40°39' W 074°07'0 0.0
2018-Apr-17 23:29N 40°39' W 074°07'0 0.0
2018-Apr-17 23:00N 40°39' W 074°07'0 0.0
2018-Apr-17 22:29N 40°39' W 074°07'0 0.0
2018-Apr-17 21:57N 40°38' W 074°07'0 0.0
2018-Apr-17 21:30N 40°39' W 074°07'0 0.0
2018-Apr-17 20:59N 40°39' W 074°07'0 0.0
2018-Apr-17 20:30N 40°39' W 074°07'0 0.0
2018-Apr-17 20:00N 40°39' W 074°07'0 0.0
2018-Apr-17 19:29N 40°39' W 074°07'0 0.0
2018-Apr-17 19:00N 40°39' W 074°07'0 0.0
2018-Apr-17 18:11N 40°38' W 074°07'0 0.0
2018-Apr-17 17:50N 40°38' W 074°07'0 0.0
2018-Apr-17 17:18N 40°39' W 074°07'0 0.0
2018-Apr-17 16:55N 40°39' W 074°07'0 0.0
2018-Apr-17 16:28N 40°38' W 074°07'0 0.0
2018-Apr-17 15:59N 40°39' W 074°07'0 0.0
2018-Apr-17 15:30N 40°38' W 074°07'0 0.0
2018-Apr-17 15:00N 40°39' W 074°07'0 0.0
2018-Apr-17 14:30N 40°38' W 074°07'0 0.0
2018-Apr-17 13:59N 40°39' W 074°07'0 0.0
2018-Apr-17 13:30N 40°38' W 074°07'0 0.0
2018-Apr-17 13:00N 40°39' W 074°07'0 0.0
2018-Apr-17 12:30N 40°38' W 074°07'0 0.0
2018-Apr-17 12:00N 40°39' W 074°07'0 0.0
2018-Apr-17 11:30N 40°38' W 074°07'0 0.2
2018-Apr-17 11:00N 40°39' W 074°07'4 8.1
2018-Apr-17 10:30N 40°40' W 074°02'0 0.0
2018-Apr-17 10:00N 40°40' W 074°02'0 0.0
2018-Apr-17 09:30N 40°40' W 074°02'0 0.1
2018-Apr-17 09:00N 40°40' W 074°02'0 0.0
2018-Apr-17 08:30N 40°40' W 074°02'0 0.0
2018-Apr-17 08:00N 40°40' W 074°02'0 0.0
2018-Apr-17 07:30N 40°40' W 074°02'0 0.0
2018-Apr-17 07:00N 40°40' W 074°02'0 0.0
2018-Apr-17 06:30N 40°40' W 074°02'0 0.0
2018-Apr-17 06:00N 40°40' W 074°02'0 0.0
2018-Apr-17 05:30N 40°40' W 074°02'0 0.0
2018-Apr-17 05:00N 40°40' W 074°02'0 0.0
2018-Apr-17 04:30N 40°40' W 074°02'0 0.1
2018-Apr-17 04:00N 40°40' W 074°02'0 0.0
2018-Apr-17 03:30N 40°40' W 074°02'0 0.0
2018-Apr-17 03:00N 40°40' W 074°02'0 0.0
2018-Apr-17 02:30N 40°40' W 074°02'0 0.0
2018-Apr-17 02:00N 40°40' W 074°02'0 0.0
2018-Apr-17 01:30N 40°40' W 074°02'0 0.0
2018-Apr-17 01:00N 40°40' W 074°02'0 0.0
2018-Apr-17 00:30N 40°40' W 074°02'0 0.0
2018-Apr-17 00:00N 40°40' W 074°02'0 0.0
2018-Apr-16 23:30N 40°40' W 074°02'  

Dump ship's entire track history